createdAt,value
2023-04-25T00:00:03.781Z,7.60
2023-04-25T00:01:03.279Z,7.60
2023-04-25T00:02:03.947Z,7.60
2023-04-25T00:04:03.480Z,7.50
2023-04-25T00:05:04.257Z,7.50
2023-04-25T00:06:06.685Z,7.50
2023-04-25T00:07:06.608Z,7.50
2023-04-25T00:08:04.007Z,7.50
2023-04-25T00:09:06.106Z,7.50
2023-04-25T00:10:06.200Z,7.40
2023-04-25T00:11:03.501Z,7.40
2023-04-25T00:12:04.000Z,7.40
2023-04-25T00:13:03.549Z,7.40
2023-04-25T00:14:04.096Z,7.40
2023-04-25T00:15:03.623Z,7.40
2023-04-25T00:16:04.187Z,7.40
2023-04-25T00:17:03.836Z,7.40
2023-04-25T00:19:03.856Z,7.40
2023-04-25T00:20:05.970Z,7.40
2023-04-25T00:21:06.037Z,7.40
2023-04-25T00:22:03.368Z,7.40
2023-04-25T00:23:03.861Z,7.40
2023-04-25T00:24:03.428Z,7.40
2023-04-25T00:25:04.002Z,7.40
2023-04-25T00:26:03.603Z,7.30
2023-04-25T00:27:04.157Z,7.30
2023-04-25T00:28:03.653Z,7.30
2023-04-25T00:29:05.711Z,7.30
2023-04-25T00:30:06.643Z,7.40
2023-04-25T00:31:04.019Z,7.40
2023-04-25T00:32:06.197Z,7.40
2023-04-25T00:33:03.804Z,7.40
2023-04-25T00:34:05.855Z,7.40
2023-04-25T00:35:05.772Z,7.40
2023-04-25T00:36:06.691Z,7.40
2023-04-25T00:37:03.999Z,7.40
2023-04-25T00:38:03.437Z,7.40
2023-04-25T00:39:03.926Z,7.40
2023-04-25T00:40:06.028Z,7.50
2023-04-25T00:41:03.781Z,7.50
2023-04-25T00:42:05.828Z,7.50
2023-04-25T00:43:03.228Z,7.50
2023-04-25T00:44:08.999Z,7.40
2023-04-25T00:45:03.397Z,7.50
2023-04-25T00:46:05.907Z,7.50
2023-04-25T00:47:05.879Z,7.50
2023-04-25T00:48:03.495Z,7.50
2023-04-25T00:49:04.125Z,7.50
2023-04-25T00:50:03.617Z,7.50
2023-04-25T00:51:04.156Z,7.50
2023-04-25T00:52:03.646Z,7.50
2023-04-25T00:53:04.140Z,7.50
2023-04-25T00:54:06.260Z,7.50
2023-04-25T00:55:03.710Z,7.50
2023-04-25T00:56:03.302Z,7.50
2023-04-25T00:57:03.822Z,7.50
2023-04-25T00:58:05.931Z,7.50
2023-04-25T00:59:10.885Z,7.40
2023-04-25T01:00:03.290Z,7.40
2023-04-25T01:01:03.786Z,7.50
2023-04-25T01:02:03.368Z,7.50
2023-04-25T01:03:04.023Z,7.50
2023-04-25T01:04:03.805Z,7.40
2023-04-25T01:05:06.099Z,7.40
2023-04-25T01:06:06.229Z,7.40
2023-04-25T01:07:03.649Z,7.50
2023-04-25T01:08:05.705Z,7.50
2023-04-25T01:09:04.131Z,7.40
2023-04-25T01:10:03.722Z,7.50
2023-04-25T01:11:05.821Z,7.50
2023-04-25T01:12:08.210Z,7.50
2023-04-25T01:13:08.693Z,7.50
2023-04-25T01:14:06.646Z,7.50
2023-04-25T01:15:06.547Z,7.50
2023-04-25T01:16:03.987Z,7.50
2023-04-25T01:17:03.542Z,7.50
2023-04-25T01:18:05.808Z,7.50
2023-04-25T01:19:08.499Z,7.50
2023-04-25T01:20:09.024Z,7.50
2023-04-25T01:21:03.390Z,7.50
2023-04-25T01:22:03.838Z,7.60
2023-04-25T01:23:03.409Z,7.60
2023-04-25T01:24:06.570Z,7.60
2023-04-25T01:25:03.930Z,7.60
2023-04-25T01:26:03.526Z,7.60
2023-04-25T01:27:06.633Z,7.70
2023-04-25T01:28:04.081Z,7.60
2023-04-25T01:29:03.589Z,7.70
2023-04-25T01:30:05.768Z,7.70
2023-04-25T01:31:05.745Z,7.70
2023-04-25T01:32:06.679Z,7.70
2023-04-25T01:34:03.760Z,7.70
2023-04-25T01:35:05.818Z,7.70
2023-04-25T01:36:03.235Z,7.70
2023-04-25T01:37:04.045Z,7.70
2023-04-25T01:38:06.020Z,7.70
2023-04-25T01:39:05.995Z,7.70
2023-04-25T01:40:03.404Z,7.70
2023-04-25T01:41:03.934Z,7.70
2023-04-25T01:43:03.914Z,7.70
2023-04-25T01:44:03.416Z,7.70
2023-04-25T01:45:06.559Z,7.70
2023-04-25T01:46:04.110Z,7.70
2023-04-25T01:47:03.675Z,7.70
2023-04-25T01:49:06.287Z,7.70
2023-04-25T01:50:08.767Z,7.70
2023-04-25T01:51:03.228Z,7.70
2023-04-25T01:52:06.353Z,7.70
2023-04-25T01:53:06.266Z,7.70
2023-04-25T01:54:03.674Z,7.70
2023-04-25T01:55:04.196Z,7.80
2023-04-25T01:56:03.750Z,7.80
2023-04-25T01:57:03.274Z,7.80
2023-04-25T01:58:03.818Z,7.80
2023-04-25T01:59:03.352Z,7.80
2023-04-25T02:00:03.833Z,7.80
2023-04-25T02:01:06.111Z,7.80
2023-04-25T02:02:03.992Z,7.80
2023-04-25T02:03:03.631Z,7.80
2023-04-25T02:04:03.472Z,7.80
2023-04-25T02:05:05.980Z,7.80
2023-04-25T02:06:03.400Z,7.80
2023-04-25T02:07:03.943Z,7.80
2023-04-25T02:08:03.469Z,7.80
2023-04-25T02:09:06.548Z,7.80
2023-04-25T02:10:03.880Z,7.70
2023-04-25T02:11:05.978Z,7.80
2023-04-25T02:12:03.362Z,7.80
2023-04-25T02:13:03.895Z,7.80
2023-04-25T02:14:03.454Z,7.90
2023-04-25T02:15:03.977Z,7.90
2023-04-25T02:16:06.355Z,7.90
2023-04-25T02:17:06.580Z,7.90
2023-04-25T02:19:03.356Z,7.90
2023-04-25T02:20:11.446Z,7.90
2023-04-25T02:21:03.817Z,7.90
2023-04-25T02:22:03.315Z,7.90
2023-04-25T02:23:03.925Z,8.00
2023-04-25T02:24:05.989Z,8.00
2023-04-25T02:25:03.366Z,8.00
2023-04-25T02:26:03.855Z,8.00
2023-04-25T02:27:03.388Z,8.00
2023-04-25T02:28:06.407Z,7.90
2023-04-25T02:29:06.344Z,7.90
2023-04-25T02:30:06.225Z,8.00
2023-04-25T02:31:06.159Z,8.00
2023-04-25T02:32:06.202Z,7.90
2023-04-25T02:33:03.579Z,7.90
2023-04-25T02:34:04.128Z,8.00
2023-04-25T02:35:03.621Z,8.00
2023-04-25T02:36:04.138Z,8.00
2023-04-25T02:37:03.672Z,8.00
2023-04-25T02:38:03.206Z,8.00
2023-04-25T02:39:06.426Z,7.90
2023-04-25T02:40:03.829Z,8.00
2023-04-25T02:42:03.836Z,7.90
2023-04-25T02:43:03.432Z,8.00
2023-04-25T02:44:03.963Z,7.90
2023-04-25T02:46:06.686Z,7.90
2023-04-25T02:47:05.780Z,7.90
2023-04-25T02:48:05.929Z,7.90
2023-04-25T02:49:06.109Z,7.90
2023-04-25T02:50:03.525Z,7.90
2023-04-25T02:51:03.994Z,7.90
2023-04-25T02:52:06.133Z,7.80
2023-04-25T02:53:03.529Z,7.90
2023-04-25T02:54:04.021Z,7.80
2023-04-25T02:55:06.114Z,7.90
2023-04-25T02:56:03.562Z,7.90
2023-04-25T02:57:04.044Z,7.90
2023-04-25T02:58:08.676Z,7.90
2023-04-25T02:59:04.091Z,7.90
2023-04-25T03:00:06.090Z,7.90
2023-04-25T03:01:06.068Z,7.90
2023-04-25T03:02:06.178Z,7.90
2023-04-25T03:03:03.703Z,7.90
2023-04-25T03:04:03.411Z,7.90
2023-04-25T03:05:04.050Z,7.90
2023-04-25T03:06:03.689Z,7.90
2023-04-25T03:07:03.216Z,7.90
2023-04-25T03:08:03.756Z,7.90
2023-04-25T03:09:05.918Z,7.90
2023-04-25T03:10:03.351Z,7.90
2023-04-25T03:11:03.845Z,7.90
2023-04-25T03:13:03.819Z,7.90
2023-04-25T03:14:05.960Z,7.90
2023-04-25T03:15:05.946Z,7.90
2023-04-25T03:16:03.306Z,7.90
2023-04-25T03:17:08.898Z,7.90
2023-04-25T03:19:03.923Z,7.90
2023-04-25T03:20:03.500Z,7.90
2023-04-25T03:21:03.554Z,7.90
2023-04-25T03:22:04.063Z,7.90
2023-04-25T03:23:06.107Z,7.90
2023-04-25T03:24:03.502Z,7.90
2023-04-25T03:25:06.590Z,8.00
2023-04-25T03:26:06.573Z,7.90
2023-04-25T03:27:08.934Z,7.90
2023-04-25T03:28:05.796Z,7.90
2023-04-25T03:29:03.151Z,7.90
2023-04-25T03:30:06.211Z,7.90
2023-04-25T03:31:03.635Z,7.90
2023-04-25T03:32:03.170Z,7.90
2023-04-25T03:33:03.801Z,8.00
2023-04-25T03:34:06.051Z,8.00
2023-04-25T03:35:03.493Z,8.00
2023-04-25T03:36:06.579Z,8.00
2023-04-25T03:37:06.520Z,8.00
2023-04-25T03:38:04.044Z,8.00
2023-04-25T03:39:03.587Z,8.00
2023-04-25T03:40:04.120Z,8.00
2023-04-25T03:41:06.188Z,8.00
2023-04-25T03:42:08.666Z,8.00
2023-04-25T03:43:06.685Z,8.00
2023-04-25T03:44:04.081Z,8.00
2023-04-25T03:46:06.661Z,8.00
2023-04-25T03:48:03.713Z,8.00
2023-04-25T03:49:03.372Z,8.00
2023-04-25T03:50:03.921Z,8.00
2023-04-25T03:51:03.502Z,8.00
2023-04-25T03:52:04.012Z,8.00
2023-04-25T03:54:06.493Z,8.00
2023-04-25T03:55:03.838Z,8.00
2023-04-25T03:56:03.439Z,8.00
2023-04-25T03:57:09.092Z,8.00
2023-04-25T03:58:03.497Z,8.00
2023-04-25T03:59:04.011Z,8.00
2023-04-25T04:01:04.102Z,8.00
2023-04-25T04:03:03.275Z,8.00
2023-04-25T04:04:04.357Z,8.00
2023-04-25T04:06:08.296Z,7.90
2023-04-25T04:07:03.579Z,7.90
2023-04-25T04:08:04.101Z,8.00
2023-04-25T04:09:03.690Z,7.90
2023-04-25T04:10:03.336Z,8.00
2023-04-25T04:11:03.817Z,7.90
2023-04-25T04:12:03.408Z,7.90
2023-04-25T04:13:03.979Z,8.00
2023-04-25T04:14:06.122Z,7.90
2023-04-25T04:15:03.673Z,7.90
2023-04-25T04:16:05.741Z,7.90
2023-04-25T04:17:03.257Z,7.90
2023-04-25T04:18:03.985Z,8.00
2023-04-25T04:19:03.725Z,7.90
2023-04-25T04:20:03.255Z,7.90
2023-04-25T04:21:06.403Z,7.90
2023-04-25T04:22:06.328Z,7.90
2023-04-25T04:23:03.742Z,7.90
2023-04-25T04:24:03.257Z,7.90
2023-04-25T04:25:11.879Z,7.90
2023-04-25T04:26:05.903Z,7.90
2023-04-25T04:27:03.357Z,7.90
2023-04-25T04:28:03.872Z,7.90
2023-04-25T04:29:08.565Z,7.90
2023-04-25T04:30:06.536Z,7.80
2023-04-25T04:32:03.813Z,7.90
2023-04-25T04:34:03.829Z,7.90
2023-04-25T04:35:05.908Z,7.90
2023-04-25T04:36:03.346Z,7.90
2023-04-25T04:37:09.030Z,7.90
2023-04-25T04:38:03.546Z,7.80
2023-04-25T04:39:04.019Z,7.80
2023-04-25T04:40:06.196Z,7.90
2023-04-25T04:41:03.702Z,7.80
2023-04-25T04:42:03.263Z,7.90
2023-04-25T04:43:03.904Z,7.90
2023-04-25T04:44:03.508Z,7.90
2023-04-25T04:45:04.046Z,7.90
2023-04-25T04:47:04.099Z,7.90
2023-04-25T04:48:06.630Z,7.90
2023-04-25T04:49:04.158Z,8.00
2023-04-25T04:50:06.152Z,7.90
2023-04-25T04:51:08.604Z,7.90
2023-04-25T04:52:03.950Z,8.00
2023-04-25T04:53:06.001Z,8.00
2023-04-25T04:54:05.974Z,7.90
2023-04-25T04:55:05.911Z,7.90
2023-04-25T04:56:05.948Z,7.90
2023-04-25T04:57:05.854Z,8.00
2023-04-25T04:58:03.187Z,8.00
2023-04-25T04:59:08.767Z,8.00
2023-04-25T05:00:03.235Z,7.90
2023-04-25T05:01:06.365Z,7.90
2023-04-25T05:02:03.882Z,7.90
2023-04-25T05:03:03.548Z,8.00
2023-04-25T05:04:03.460Z,7.90
2023-04-25T05:05:03.611Z,7.90
2023-04-25T05:06:06.674Z,7.90
2023-04-25T05:07:05.692Z,8.00
2023-04-25T05:08:06.677Z,7.90
2023-04-25T05:09:11.773Z,7.90
2023-04-25T05:10:08.238Z,7.90
2023-04-25T05:11:06.152Z,7.90
2023-04-25T05:12:03.562Z,7.90
2023-04-25T05:13:04.101Z,7.80
2023-04-25T05:14:03.683Z,7.80
2023-04-25T05:15:03.183Z,7.80
2023-04-25T05:16:03.813Z,7.80
2023-04-25T05:18:04.143Z,7.80
2023-04-25T05:19:03.750Z,7.80
2023-04-25T05:20:03.288Z,7.70
2023-04-25T05:21:03.766Z,7.70
2023-04-25T05:22:05.866Z,7.70
2023-04-25T05:23:05.864Z,7.70
2023-04-25T05:24:05.807Z,7.70
2023-04-25T05:25:03.220Z,7.70
2023-04-25T05:26:03.669Z,7.70
2023-04-25T05:27:03.283Z,7.70
2023-04-25T05:28:03.949Z,7.70
2023-04-25T05:29:05.993Z,7.70
2023-04-25T05:30:03.426Z,7.70
2023-04-25T05:31:03.912Z,7.70
2023-04-25T05:33:03.961Z,7.70
2023-04-25T05:35:04.187Z,7.80
2023-04-25T05:36:06.499Z,7.80
2023-04-25T05:37:03.873Z,7.80
2023-04-25T05:38:05.946Z,7.80
2023-04-25T05:39:05.899Z,7.80
2023-04-25T05:40:08.377Z,7.90
2023-04-25T05:41:03.760Z,7.90
2023-04-25T05:42:08.317Z,8.00
2023-04-25T05:43:03.670Z,8.00
2023-04-25T05:44:05.733Z,8.40
2023-04-25T05:45:04.180Z,8.40
2023-04-25T05:47:03.353Z,8.80
2023-04-25T05:48:06.448Z,9.20
2023-04-25T05:49:09.021Z,9.30
2023-04-25T05:50:06.014Z,9.50
2023-04-25T05:51:06.205Z,9.70
2023-04-25T05:52:03.694Z,9.60
2023-04-25T05:53:03.200Z,9.70
2023-04-25T05:54:10.356Z,10.20
2023-04-25T05:55:06.408Z,10.30
2023-04-25T05:56:06.368Z,10.40
2023-04-25T05:57:08.853Z,10.30
2023-04-25T05:58:03.385Z,10.40
2023-04-25T05:59:06.557Z,10.40
2023-04-25T06:00:04.044Z,10.50
2023-04-25T06:02:04.110Z,10.40
2023-04-25T06:03:03.832Z,10.30
2023-04-25T06:04:04.419Z,10.30
2023-04-25T06:05:03.721Z,10.20
2023-04-25T06:06:06.729Z,10.10
2023-04-25T06:07:03.467Z,10.00
2023-04-25T06:08:04.040Z,10.00
2023-04-25T06:09:06.040Z,9.90
2023-04-25T06:10:05.956Z,9.80
2023-04-25T06:11:03.341Z,9.80
2023-04-25T06:12:03.847Z,9.70
2023-04-25T06:14:03.841Z,9.70
2023-04-25T06:15:04.700Z,9.70
2023-04-25T06:16:06.922Z,9.60
2023-04-25T06:17:03.346Z,9.50
2023-04-25T06:18:06.567Z,9.60
2023-04-25T06:19:04.125Z,9.60
2023-04-25T06:20:05.162Z,9.60
2023-04-25T06:21:03.418Z,9.50
2023-04-25T06:22:06.562Z,9.50
2023-04-25T06:23:04.012Z,9.50
2023-04-25T06:24:06.037Z,9.50
2023-04-25T06:25:03.415Z,9.40
2023-04-25T06:26:06.489Z,9.50
2023-04-25T06:27:06.546Z,9.50
2023-04-25T06:28:04.022Z,9.40
2023-04-25T06:29:03.533Z,9.50
2023-04-25T06:30:06.757Z,9.60
2023-04-25T06:31:08.291Z,9.70
2023-04-25T06:32:03.817Z,9.70
2023-04-25T06:33:10.913Z,10.00
2023-04-25T06:34:03.401Z,10.00
2023-04-25T06:35:03.913Z,10.20
2023-04-25T06:37:03.960Z,10.60
2023-04-25T06:38:03.585Z,10.90
2023-04-25T06:39:03.255Z,11.00
2023-04-25T06:40:03.913Z,11.20
2023-04-25T06:41:06.075Z,11.60
2023-04-25T06:42:06.065Z,11.80
2023-04-25T06:43:06.061Z,11.90
2023-04-25T06:44:03.450Z,11.90
2023-04-25T06:45:06.627Z,11.90
2023-04-25T06:46:11.683Z,12.00
2023-04-25T06:47:05.832Z,12.00
2023-04-25T06:48:05.979Z,12.00
2023-04-25T06:49:03.406Z,12.00
2023-04-25T06:50:03.880Z,12.00
2023-04-25T06:52:03.899Z,12.00
2023-04-25T06:53:03.534Z,12.00
2023-04-25T06:54:06.635Z,12.10
2023-04-25T06:55:04.122Z,12.10
2023-04-25T06:56:03.652Z,12.20
2023-04-25T06:57:03.127Z,12.20
2023-04-25T06:58:06.158Z,12.40
2023-04-25T06:59:03.614Z,12.50
2023-04-25T07:00:05.699Z,12.60
2023-04-25T07:01:04.110Z,12.60
2023-04-25T07:02:03.750Z,12.70
2023-04-25T07:03:03.358Z,12.70
2023-04-25T07:04:04.063Z,12.70
2023-04-25T07:05:06.688Z,12.60
2023-04-25T07:06:04.130Z,12.60
2023-04-25T07:07:03.627Z,12.50
2023-04-25T07:08:04.182Z,12.40
2023-04-25T07:09:03.778Z,12.50
2023-04-25T07:10:03.252Z,12.50
2023-04-25T07:11:06.273Z,12.30
2023-04-25T07:12:03.829Z,12.20
2023-04-25T07:13:05.984Z,12.00
2023-04-25T07:14:05.950Z,11.90
2023-04-25T07:15:05.866Z,11.80
2023-04-25T07:16:03.356Z,11.80
2023-04-25T07:17:04.108Z,11.70
2023-04-25T07:18:06.325Z,11.50
2023-04-25T07:19:06.311Z,11.40
2023-04-25T07:20:03.760Z,11.40
2023-04-25T07:21:03.304Z,11.40
2023-04-25T07:22:06.499Z,11.30
2023-04-25T07:23:03.934Z,11.20
2023-04-25T07:24:03.464Z,11.30
2023-04-25T07:25:06.524Z,11.20
2023-04-25T07:26:06.598Z,11.20
2023-04-25T07:27:04.086Z,11.30
2023-04-25T07:28:06.064Z,11.40
2023-04-25T07:29:03.571Z,11.30
2023-04-25T07:30:05.966Z,11.40
2023-04-25T07:31:03.344Z,11.40
2023-04-25T07:32:03.911Z,11.40
2023-04-25T07:33:03.606Z,11.40
2023-04-25T07:34:05.936Z,11.50
2023-04-25T07:35:04.740Z,11.50
2023-04-25T07:36:06.427Z,11.50
2023-04-25T07:37:03.851Z,11.40
2023-04-25T07:38:03.886Z,11.40
2023-04-25T07:40:04.018Z,11.30
2023-04-25T07:41:03.572Z,11.30
2023-04-25T07:42:04.093Z,11.20
2023-04-25T07:43:03.672Z,11.20
2023-04-25T07:44:03.595Z,11.20
2023-04-25T07:45:04.101Z,11.20
2023-04-25T07:46:03.828Z,11.10
2023-04-25T07:47:04.445Z,11.10
2023-04-25T07:48:04.185Z,11.10
2023-04-25T07:49:03.707Z,11.00
2023-04-25T07:50:03.325Z,11.00
2023-04-25T07:51:03.822Z,11.00
2023-04-25T07:52:05.858Z,11.00
2023-04-25T07:53:03.387Z,10.90
2023-04-25T07:54:04.048Z,10.90
2023-04-25T07:55:06.255Z,10.80
2023-04-25T07:56:06.207Z,10.80
2023-04-25T07:57:03.651Z,10.80
2023-04-25T07:59:03.727Z,10.70
2023-04-25T08:00:05.781Z,10.60
2023-04-25T08:01:03.206Z,10.60
2023-04-25T08:02:06.370Z,10.60
2023-04-25T08:03:03.996Z,10.50
2023-04-25T08:04:03.877Z,10.60
2023-04-25T08:05:03.857Z,10.50
2023-04-25T08:06:05.917Z,10.50
2023-04-25T08:07:06.550Z,10.50
2023-04-25T08:08:04.066Z,10.40
2023-04-25T08:09:03.665Z,10.40
2023-04-25T08:10:05.748Z,10.40
2023-04-25T08:11:03.221Z,10.30
2023-04-25T08:12:03.707Z,10.30
2023-04-25T08:14:03.699Z,10.30
2023-04-25T08:15:03.292Z,10.40
2023-04-25T08:16:03.920Z,10.20
2023-04-25T08:18:09.186Z,10.10
2023-04-25T08:19:06.215Z,10.10
2023-04-25T08:20:03.630Z,10.00
2023-04-25T08:21:04.094Z,10.00
2023-04-25T08:23:04.205Z,9.90
2023-04-25T08:24:03.895Z,9.90
2023-04-25T08:25:03.441Z,9.80
2023-04-25T08:26:03.953Z,9.80
2023-04-25T08:27:03.466Z,9.80
2023-04-25T08:28:04.114Z,9.70
2023-04-25T08:29:03.603Z,9.60
2023-04-25T08:30:06.761Z,9.60
2023-04-25T08:32:06.223Z,9.50
2023-04-25T08:33:03.709Z,9.50
2023-04-25T08:34:03.522Z,9.50
2023-04-25T08:35:04.000Z,9.50
2023-04-25T08:36:03.690Z,9.50
2023-04-25T08:37:03.265Z,9.50
2023-04-25T08:38:06.386Z,9.40
2023-04-25T08:39:03.862Z,9.40
2023-04-25T08:40:03.359Z,9.40
2023-04-25T08:41:03.970Z,9.50
2023-04-25T08:42:06.084Z,9.40
2023-04-25T08:43:03.535Z,9.40
2023-04-25T08:44:04.138Z,9.40
2023-04-25T08:45:05.415Z,9.40
2023-04-25T08:47:08.302Z,9.30
2023-04-25T08:48:03.769Z,9.30
2023-04-25T08:49:03.348Z,9.30
2023-04-25T08:50:03.961Z,9.30
2023-04-25T08:51:03.564Z,9.20
2023-04-25T08:52:06.779Z,9.30
2023-04-25T08:54:08.961Z,9.20
2023-04-25T08:56:04.016Z,9.20
2023-04-25T08:57:03.581Z,9.20
2023-04-25T08:58:04.127Z,9.10
2023-04-25T09:00:03.551Z,9.20
2023-04-25T09:01:06.804Z,9.10
2023-04-25T09:03:09.315Z,9.10
2023-04-25T09:04:05.887Z,9.20
2023-04-25T09:05:06.136Z,9.10
2023-04-25T09:06:03.544Z,9.10
2023-04-25T09:07:04.130Z,9.00
2023-04-25T09:08:06.331Z,9.20
2023-04-25T09:09:06.501Z,9.20
2023-04-25T09:10:05.969Z,9.20
2023-04-25T09:11:06.032Z,9.20
2023-04-25T09:12:03.405Z,9.20
2023-04-25T09:13:03.894Z,9.20
2023-04-25T09:14:05.964Z,9.30
2023-04-25T09:15:03.426Z,9.20
2023-04-25T09:16:09.220Z,9.30
2023-04-25T09:17:03.955Z,9.30
2023-04-25T09:18:03.579Z,9.40
2023-04-25T09:20:03.865Z,9.30
2023-04-25T09:22:06.320Z,9.30
2023-04-25T09:23:06.418Z,9.30
2023-04-25T09:24:06.490Z,9.20
2023-04-25T09:25:03.894Z,9.20
2023-04-25T09:26:03.371Z,9.20
2023-04-25T09:27:03.917Z,9.30
2023-04-25T09:28:03.448Z,9.30
2023-04-25T09:29:06.562Z,9.20
2023-04-25T09:30:04.032Z,9.20
2023-04-25T09:31:03.601Z,9.20
2023-04-25T09:32:03.177Z,9.20
2023-04-25T09:33:06.405Z,9.20
2023-04-25T09:34:04.203Z,9.10
2023-04-25T09:36:03.887Z,9.00
2023-04-25T09:37:03.509Z,9.10
2023-04-25T09:38:03.291Z,9.00
2023-04-25T09:39:05.752Z,9.00
2023-04-25T09:40:06.672Z,8.90
2023-04-25T09:42:03.718Z,8.90
2023-04-25T09:43:05.739Z,8.80
2023-04-25T09:44:03.730Z,8.90
2023-04-25T09:45:06.116Z,8.90
2023-04-25T09:46:06.153Z,8.80
2023-04-25T09:47:03.637Z,8.80
2023-04-25T09:48:03.258Z,8.90
2023-04-25T09:49:03.999Z,8.80
2023-04-25T09:50:03.690Z,8.80
2023-04-25T09:51:03.255Z,8.80
2023-04-25T09:52:03.821Z,8.80
2023-04-25T09:53:06.039Z,9.00
2023-04-25T09:54:06.054Z,8.90
2023-04-25T09:55:03.438Z,8.80
2023-04-25T09:56:06.653Z,8.90
2023-04-25T09:57:04.216Z,8.80
2023-04-25T09:58:06.397Z,8.80
2023-04-25T09:59:03.779Z,8.80
2023-04-25T10:00:03.779Z,8.90
2023-04-25T10:01:04.067Z,8.80
2023-04-25T10:03:03.729Z,9.20
2023-04-25T10:04:03.837Z,8.80
2023-04-25T10:05:03.764Z,8.90
2023-04-25T10:06:06.205Z,8.80
2023-04-25T10:07:03.853Z,8.80
2023-04-25T10:08:06.007Z,8.80
2023-04-25T10:09:03.487Z,8.80
2023-04-25T10:10:06.641Z,8.80
2023-04-25T10:11:05.864Z,8.80
2023-04-25T10:12:06.369Z,8.80
2023-04-25T10:13:03.856Z,8.70
2023-04-25T10:14:03.497Z,8.80
2023-04-25T10:15:04.194Z,8.70
2023-04-25T10:17:08.558Z,8.70
2023-04-25T10:18:06.524Z,8.70
2023-04-25T10:19:03.976Z,8.70
2023-04-25T10:20:03.541Z,8.70
2023-04-25T10:21:09.198Z,8.70
2023-04-25T10:22:03.621Z,8.60
2023-04-25T10:23:03.125Z,8.70
2023-04-25T10:24:06.187Z,8.70
2023-04-25T10:25:03.649Z,8.60
2023-04-25T10:26:06.363Z,8.70
2023-04-25T10:27:03.852Z,8.70
2023-04-25T10:28:05.867Z,8.60
2023-04-25T10:29:03.289Z,8.60
2023-04-25T10:30:03.784Z,8.60
2023-04-25T10:31:03.361Z,8.60
2023-04-25T10:32:06.527Z,8.60
2023-04-25T10:33:04.074Z,8.60
2023-04-25T10:34:06.196Z,8.60
2023-04-25T10:35:03.691Z,8.60
2023-04-25T10:36:04.029Z,8.60
2023-04-25T10:38:03.924Z,8.50
2023-04-25T10:39:05.909Z,8.50
2023-04-25T10:40:05.893Z,8.60
2023-04-25T10:41:03.334Z,8.50
2023-04-25T10:42:03.963Z,8.50
2023-04-25T10:43:03.485Z,8.60
2023-04-25T10:44:04.042Z,8.60
2023-04-25T10:45:03.625Z,8.60
2023-04-25T10:46:05.817Z,8.70
2023-04-25T10:47:03.368Z,8.80
2023-04-25T10:48:03.326Z,8.80
2023-04-25T10:49:06.479Z,9.00
2023-04-25T10:50:03.921Z,8.90
2023-04-25T10:51:05.954Z,9.00
2023-04-25T10:52:03.348Z,9.00
2023-04-25T10:53:03.986Z,9.10
2023-04-25T10:55:11.795Z,9.20
2023-04-25T10:57:06.288Z,9.20
2023-04-25T10:58:08.859Z,9.30
2023-04-25T10:59:03.376Z,9.30
2023-04-25T11:00:04.009Z,9.30
2023-04-25T11:02:04.196Z,9.20
2023-04-25T11:03:04.051Z,9.30
2023-04-25T11:04:04.055Z,9.20
2023-04-25T11:05:04.068Z,9.10
2023-04-25T11:06:03.624Z,9.00
2023-04-25T11:07:06.752Z,9.00
2023-04-25T11:08:08.079Z,8.80
2023-04-25T11:09:06.529Z,8.70
2023-04-25T11:10:03.980Z,8.70
2023-04-25T11:11:03.592Z,8.70
2023-04-25T11:12:03.225Z,8.60
2023-04-25T11:13:03.973Z,8.60
2023-04-25T11:14:03.577Z,8.40
2023-04-25T11:15:04.060Z,8.40
2023-04-25T11:16:07.392Z,8.40
2023-04-25T11:18:06.562Z,8.30
2023-04-25T11:20:06.165Z,8.30
2023-04-25T11:21:03.556Z,8.30
2023-04-25T11:22:04.124Z,8.30
2023-04-25T11:24:08.709Z,8.30
2023-04-25T11:25:04.197Z,8.30
2023-04-25T11:26:06.449Z,8.30
2023-04-25T11:27:06.425Z,8.30
2023-04-25T11:28:04.026Z,8.30
2023-04-25T11:29:03.575Z,8.40
2023-04-25T11:30:06.695Z,8.40
2023-04-25T11:31:04.118Z,8.40
2023-04-25T11:32:06.322Z,8.50
2023-04-25T11:33:08.975Z,8.50
2023-04-25T11:35:03.940Z,8.60
2023-04-25T11:36:06.015Z,8.70
2023-04-25T11:37:03.643Z,8.60
2023-04-25T11:38:03.264Z,8.60
2023-04-25T11:39:06.432Z,8.80
2023-04-25T11:40:03.841Z,8.80
2023-04-25T11:41:03.347Z,8.90
2023-04-25T11:42:04.657Z,8.90
2023-04-25T11:44:05.792Z,9.10
2023-04-25T11:45:04.201Z,9.00
2023-04-25T11:46:03.861Z,9.10
2023-04-25T11:47:05.948Z,9.20
2023-04-25T11:48:13.626Z,9.30
2023-04-25T11:50:08.860Z,9.40
2023-04-25T11:51:05.926Z,9.50
2023-04-25T11:52:05.867Z,9.50
2023-04-25T11:53:03.239Z,9.50
2023-04-25T11:54:03.751Z,9.50
2023-04-25T11:55:05.999Z,9.60
2023-04-25T11:56:03.482Z,9.60
2023-04-25T11:57:04.124Z,9.60
2023-04-25T11:58:03.777Z,9.60
2023-04-25T11:59:03.230Z,9.60
2023-04-25T12:00:06.283Z,9.50
2023-04-25T12:01:06.150Z,9.50
2023-04-25T12:02:03.520Z,9.40
2023-04-25T12:03:04.206Z,9.40
2023-04-25T12:04:04.388Z,9.40
2023-04-25T12:06:03.959Z,9.30
2023-04-25T12:07:03.520Z,9.30
2023-04-25T12:08:03.255Z,9.20
2023-04-25T12:09:03.840Z,9.30
2023-04-25T12:10:03.502Z,9.30
2023-04-25T12:11:06.654Z,9.20
2023-04-25T12:12:09.193Z,9.20
2023-04-25T12:13:03.684Z,9.20
2023-04-25T12:14:05.724Z,9.10
2023-04-25T12:15:06.648Z,9.10
2023-04-25T12:16:04.124Z,9.10
2023-04-25T12:17:06.431Z,9.10
2023-04-25T12:18:06.396Z,9.20
2023-04-25T12:19:03.905Z,9.10
2023-04-25T12:20:06.050Z,9.10
2023-04-25T12:21:05.962Z,9.00
2023-04-25T12:22:03.374Z,9.10
2023-04-25T12:23:03.927Z,9.00
2023-04-25T12:24:06.109Z,9.10
2023-04-25T12:25:06.160Z,9.10
2023-04-25T12:26:06.186Z,9.00
2023-04-25T12:27:03.764Z,9.10
2023-04-25T12:28:03.617Z,9.10
2023-04-25T12:29:10.907Z,9.20
2023-04-25T12:30:05.946Z,9.20
2023-04-25T12:31:05.981Z,9.30
2023-04-25T12:32:03.494Z,9.30
2023-04-25T12:33:04.094Z,9.30
2023-04-25T12:34:03.736Z,9.40
2023-04-25T12:35:05.894Z,9.40
2023-04-25T12:36:04.372Z,9.40
2023-04-25T12:37:03.532Z,9.50
2023-04-25T12:38:06.694Z,9.70
2023-04-25T12:39:04.169Z,9.90
2023-04-25T12:40:03.932Z,9.80
2023-04-25T12:42:04.303Z,10.00
2023-04-25T12:43:06.290Z,10.00
2023-04-25T12:44:03.726Z,9.90
2023-04-25T12:45:03.270Z,10.00
2023-04-25T12:46:03.864Z,10.10
2023-04-25T12:47:03.472Z,10.30
2023-04-25T12:48:04.326Z,10.20
2023-04-25T12:49:11.946Z,10.10
2023-04-25T12:50:06.119Z,10.50
2023-04-25T12:51:03.578Z,10.50
2023-04-25T12:52:03.245Z,10.60
2023-04-25T12:53:03.857Z,10.70
2023-04-25T12:54:06.016Z,10.90
2023-04-25T12:55:03.338Z,10.90
2023-04-25T12:56:03.822Z,11.00
2023-04-25T12:58:03.685Z,11.10
2023-04-25T12:59:03.409Z,11.20
2023-04-25T13:00:04.036Z,11.20
2023-04-25T13:01:11.304Z,11.30
2023-04-25T13:02:06.444Z,11.30
2023-04-25T13:03:03.972Z,11.20
2023-04-25T13:04:04.038Z,11.20
2023-04-25T13:05:04.002Z,11.20
2023-04-25T13:06:06.043Z,11.10
2023-04-25T13:07:06.049Z,11.00
2023-04-25T13:08:03.580Z,11.00
2023-04-25T13:09:06.677Z,10.90
2023-04-25T13:10:06.719Z,10.80
2023-04-25T13:11:05.757Z,10.80
2023-04-25T13:12:03.175Z,10.70
2023-04-25T13:13:06.360Z,10.70
2023-04-25T13:14:04.120Z,10.70
2023-04-25T13:15:03.851Z,10.60
2023-04-25T13:17:04.143Z,10.50
2023-04-25T13:18:05.783Z,10.50
2023-04-25T13:19:05.829Z,10.50
2023-04-25T13:20:03.260Z,10.50
2023-04-25T13:21:06.412Z,10.60
2023-04-25T13:22:06.480Z,10.60
2023-04-25T13:23:06.602Z,10.70
2023-04-25T13:24:04.054Z,10.60
2023-04-25T13:26:09.210Z,10.70
2023-04-25T13:27:03.790Z,10.70
2023-04-25T13:28:03.346Z,10.70
2023-04-25T13:29:06.490Z,10.80
2023-04-25T13:30:06.461Z,10.70
2023-04-25T13:31:09.033Z,10.90
2023-04-25T13:32:03.528Z,10.90
2023-04-25T13:33:05.738Z,11.00
2023-04-25T13:34:05.848Z,11.10
2023-04-25T13:35:06.108Z,11.10
2023-04-25T13:36:06.206Z,11.10
2023-04-25T13:37:03.583Z,11.10
2023-04-25T13:38:03.397Z,11.20
2023-04-25T13:39:04.080Z,11.20
2023-04-25T13:40:03.579Z,11.20
2023-04-25T13:41:04.090Z,11.20
2023-04-25T13:42:06.166Z,11.20
2023-04-25T13:43:03.690Z,11.10
2023-04-25T13:44:03.223Z,11.20
2023-04-25T13:45:03.884Z,11.10
2023-04-25T13:46:08.947Z,11.00
2023-04-25T13:47:09.253Z,11.00
2023-04-25T13:48:04.100Z,11.00
2023-04-25T13:49:11.921Z,10.90
2023-04-25T13:50:04.040Z,10.90
2023-04-25T13:51:08.738Z,10.80
2023-04-25T13:52:08.184Z,10.80
2023-04-25T13:53:03.644Z,10.80
2023-04-25T13:54:05.704Z,10.60
2023-04-25T13:55:06.743Z,10.50
2023-04-25T13:56:05.750Z,10.50
2023-04-25T13:57:05.714Z,10.50
2023-04-25T13:58:06.692Z,10.40
2023-04-25T13:59:06.624Z,10.40
2023-04-25T14:00:04.056Z,10.40
2023-04-25T14:01:06.234Z,10.30
2023-04-25T14:02:06.401Z,10.30
2023-04-25T14:03:06.443Z,10.30
2023-04-25T14:04:06.619Z,10.30
2023-04-25T14:06:06.388Z,10.20
2023-04-25T14:07:03.935Z,10.30
2023-04-25T14:08:03.672Z,10.20
2023-04-25T14:09:05.880Z,10.30
2023-04-25T14:10:03.425Z,10.30
2023-04-25T14:11:06.650Z,10.20